Time;durP1;ratioP1;P1;durP2;ratioP2;P2;SDS_P1;SDS_P2;PMS_P1;PMS_P2;Temp;Humidity;BMP_temperature;BMP_pressure;BME280_temperature;BME280_humidity;BME280_pressure;Samples;Min_cycle;Max_cycle;Signal;HPM_P1;HPM_P2
2022/07/04 00:00:06;;;;;;;1999.90;999.90;;;;;;;15.55;100.00;99769.81;5051651;28;20056;-53
2022/07/04 00:03:03;;;;;;;1999.90;999.90;;;;;;;15.54;100.00;99757.56;5050203;28;20065;-53
2022/07/04 00:05:47;;;;;;;1999.90;999.90;;;;;;;15.50;100.00;99753.34;5050770;28;20037;-53
2022/07/04 00:08:32;;;;;;;1999.90;999.90;;;;;;;15.59;100.00;99765.25;5050228;28;20822;-53
2022/07/04 00:11:16;;;;;;;1999.90;999.90;;;;;;;15.50;100.00;99768.31;5052920;28;20561;-54
2022/07/04 00:14:01;;;;;;;1999.90;999.90;;;;;;;15.31;100.00;99765.69;5052086;28;20496;-53
2022/07/04 00:16:45;;;;;;;1999.90;999.90;;;;;;;15.36;100.00;99759.25;5052025;28;20518;-53
2022/07/04 00:19:29;;;;;;;1999.90;999.90;;;;;;;15.37;100.00;99763.63;5051091;28;20060;-53
2022/07/04 00:22:14;;;;;;;1999.90;999.90;;;;;;;15.39;100.00;99769.66;5051820;28;20056;-54
2022/07/04 00:24:58;;;;;;;1999.90;999.90;;;;;;;15.27;100.00;99754.38;5050787;28;20635;-53
2022/07/04 00:27:43;;;;;;;1999.90;999.90;;;;;;;15.28;100.00;99756.09;5050652;28;20049;-53
2022/07/04 00:30:27;;;;;;;1999.90;999.90;;;;;;;15.27;100.00;99757.00;5051144;28;20178;-53
2022/07/04 00:33:13;;;;;;;1999.90;999.90;;;;;;;15.20;100.00;99753.78;5053204;28;20048;-53
2022/07/04 00:35:57;;;;;;;1999.90;999.90;;;;;;;15.09;100.00;99739.41;5052877;28;20368;-53
2022/07/04 00:38:42;;;;;;;1999.90;999.90;;;;;;;15.19;100.00;99749.44;5053328;28;20500;-53
2022/07/04 00:41:26;;;;;;;1999.90;999.90;;;;;;;15.19;100.00;99745.97;5055319;28;20129;-53
2022/07/04 00:44:13;;;;;;;1999.90;999.90;;;;;;;15.15;100.00;99744.41;5054109;28;20115;-53
2022/07/04 00:46:57;;;;;;;1999.90;999.90;;;;;;;15.09;100.00;99734.13;5053991;28;20075;-53
2022/07/04 00:49:41;;;;;;;1999.90;999.90;;;;;;;14.93;100.00;99741.84;5055534;28;20080;-53
2022/07/04 00:52:27;;;;;;;1999.90;999.90;;;;;;;14.94;100.00;99735.63;5055830;28;20048;-53
2022/07/04 00:55:11;;;;;;;1999.90;999.90;;;;;;;15.03;100.00;99739.66;5054665;28;20044;-53
2022/07/04 00:57:55;;;;;;;1999.90;999.90;;;;;;;14.99;100.00;99740.72;5052804;28;20132;-53
2022/07/04 01:00:40;;;;;;;1999.90;999.90;;;;;;;15.00;100.00;99737.16;5055709;28;20107;-53
2022/07/04 01:03:24;;;;;;;1999.90;999.90;;;;;;;14.93;100.00;99741.84;5056072;28;20546;-53
2022/07/04 01:06:09;;;;;;;1999.90;999.90;;;;;;;14.96;100.00;99734.66;5053389;28;20046;-53
2022/07/04 01:08:54;;;;;;;1999.90;999.90;;;;;;;14.94;100.00;99733.84;5054835;28;20922;-53
2022/07/04 01:11:39;;;;;;;1999.90;999.90;;;;;;;14.93;100.00;99732.16;5054598;28;20115;-53
2022/07/04 01:14:23;;;;;;;1999.90;999.90;;;;;;;14.90;100.00;99729.66;5054522;28;20098;-53
2022/07/04 01:17:08;;;;;;;1999.90;999.90;;;;;;;14.90;100.00;99727.00;5054806;28;20041;-52
2022/07/04 01:19:53;;;;;;;1999.90;999.90;;;;;;;14.84;100.00;99731.69;5053823;28;20055;-52
2022/07/04 01:22:37;;;;;;;1999.90;999.90;;;;;;;14.86;100.00;99728.06;5053625;28;20041;-53
2022/07/04 01:25:21;;;;;;;1999.90;999.90;;;;;;;14.79;100.00;99728.44;5054637;28;20094;-51
2022/07/04 01:28:06;;;;;;;1999.90;999.90;;;;;;;14.89;100.00;99727.94;5055570;28;20119;-52
2022/07/04 01:30:51;;;;;;;1999.90;999.90;;;;;;;14.81;100.00;99722.13;5054193;28;20056;-52
2022/07/04 01:33:36;;;;;;;1999.90;999.90;;;;;;;14.66;100.00;99723.69;5053499;28;21494;-53
2022/07/04 01:36:20;;;;;;;1999.90;999.90;;;;;;;14.71;100.00;99726.94;5053782;28;20151;-52
2022/07/04 01:39:05;;;;;;;1999.90;999.90;;;;;;;14.75;100.00;99714.50;5053207;28;20075;-52
2022/07/04 01:41:49;;;;;;;1999.90;999.90;;;;;;;14.70;100.00;99719.13;5055969;28;20120;-52
2022/07/04 01:44:34;;;;;;;1999.90;999.90;;;;;;;14.72;100.00;99719.91;5054428;28;20064;-54
2022/07/04 01:47:18;;;;;;;1999.90;999.90;;;;;;;14.66;100.00;99717.56;5053749;28;20045;-53
2022/07/04 01:50:05;;;;;;;1999.90;999.90;;;;;;;14.60;100.00;99715.19;5053263;28;20048;-53
2022/07/04 01:52:50;;;;;;;1999.90;999.90;;;;;;;14.51;100.00;99708.50;5052370;28;20461;-52
2022/07/04 01:55:34;;;;;;;1999.90;999.90;;;;;;;14.45;100.00;99706.94;5054282;28;20076;-53
2022/07/04 01:58:19;;;;;;;1999.90;999.90;;;;;;;14.55;100.00;99709.22;5053829;28;20044;-54
2022/07/04 02:04:07;;;;;;;1999.90;999.90;;;;;;;14.44;100.00;99707.88;5053545;28;21750;-53
2022/07/04 02:06:52;;;;;;;1999.90;999.90;;;;;;;14.45;100.00;99704.31;5053566;28;20063;-52
2022/07/04 02:09:36;;;;;;;1999.90;999.90;;;;;;;14.41;100.00;99701.91;5052873;28;20426;-54
2022/07/04 02:15:24;;;;;;;1999.90;999.90;;;;;;;14.38;100.00;99696.75;5054033;28;20412;-54
2022/07/04 02:18:11;;;;;;;1999.90;999.90;;;;;;;14.39;100.00;99707.22;5054488;28;20106;-54
2022/07/04 02:20:55;;;;;;;1999.90;999.90;;;;;;;14.33;100.00;99698.72;5052974;28;20114;-52
2022/07/04 02:23:40;;;;;;;1999.90;999.90;;;;;;;14.13;100.00;99699.53;5053704;28;20047;-53
2022/07/04 02:26:24;;;;;;;1999.90;999.90;;;;;;;14.19;100.00;99694.03;5053482;28;20055;-53
2022/07/04 02:29:09;;;;;;;1999.90;999.90;;;;;;;14.27;100.00;99702.47;5052000;28;20426;-53
2022/07/04 02:31:53;;;;;;;1999.90;999.90;;;;;;;14.19;100.00;99707.19;5052044;28;20110;-53
2022/07/04 02:34:38;;;;;;;1999.90;999.90;;;;;;;14.20;100.00;99688.72;5052339;28;20048;-53
2022/07/04 02:37:23;;;;;;;1999.90;999.90;;;;;;;14.24;100.00;99684.16;5052174;28;20091;-52
2022/07/04 02:40:08;;;;;;;1999.90;999.90;;;;;;;14.24;100.00;99697.34;5053061;28;20040;-53
2022/07/04 02:42:52;;;;;;;1999.90;999.90;;;;;;;14.17;100.00;99698.50;5053712;28;20124;-52
2022/07/04 02:45:37;;;;;;;1999.90;999.90;;;;;;;14.20;100.00;99703.63;5053563;28;20416;-53
2022/07/04 02:48:21;;;;;;;1999.90;999.90;;;;;;;14.27;100.00;99697.22;5052837;28;20051;-53
2022/07/04 02:51:05;;;;;;;1999.90;999.90;;;;;;;14.30;100.00;99707.63;5051570;28;20045;-53
2022/07/04 02:53:50;;;;;;;1999.90;999.90;;;;;;;14.28;100.00;99714.72;5053302;28;20060;-53
2022/07/04 02:56:34;;;;;;;1999.90;999.90;;;;;;;14.30;100.00;99723.44;5051461;28;20072;-53
2022/07/04 02:59:19;;;;;;;1999.90;999.90;;;;;;;14.32;100.00;99718.09;5052997;28;20051;-52
2022/07/04 03:02:04;;;;;;;1999.90;999.90;;;;;;;14.32;100.00;99716.31;5052075;28;20126;-52
2022/07/04 03:04:48;;;;;;;1999.90;999.90;;;;;;;14.26;100.00;99724.44;5053585;28;20395;-52
2022/07/04 03:07:33;;;;;;;1999.90;999.90;;;;;;;14.23;100.00;99716.69;5053093;28;20048;-53
2022/07/04 03:10:17;;;;;;;1999.90;999.90;;;;;;;14.29;100.00;99721.69;5053558;28;20083;-53
2022/07/04 03:13:02;;;;;;;1999.90;999.90;;;;;;;14.37;100.00;99719.63;5053973;28;20150;-54
2022/07/04 03:15:46;;;;;;;1999.90;999.90;;;;;;;14.39;100.00;99722.16;5052345;28;20078;-53
2022/07/04 03:18:31;;;;;;;1999.90;999.90;;;;;;;14.36;100.00;99730.19;5052303;28;20056;-53
2022/07/04 03:21:15;;;;;;;1999.90;999.90;;;;;;;14.40;100.00;99729.16;5053895;28;20186;-53
2022/07/04 03:24:00;;;;;;;1999.90;999.90;;;;;;;14.35;100.00;99726.72;5052956;28;20451;-53
2022/07/04 03:26:44;;;;;;;1999.90;999.90;;;;;;;14.39;100.00;99722.16;5054652;28;20049;-53
2022/07/04 03:29:28;;;;;;;1999.90;999.90;;;;;;;14.57;100.00;99728.47;5055681;28;20515;-54
2022/07/04 03:32:13;;;;;;;1999.90;999.90;;;;;;;14.51;100.00;99726.97;5053581;28;20053;-52
2022/07/04 03:34:57;;;;;;;1999.90;999.90;;;;;;;14.57;100.00;99725.84;5053502;28;20059;-53
2022/07/04 03:37:41;;;;;;;1999.90;999.90;;;;;;;14.55;100.00;99723.25;5054449;28;20059;-53
2022/07/04 03:40:30;;;;;;;1999.90;999.90;;;;;;;14.70;100.00;99719.13;5054685;28;20622;-53
2022/07/04 03:43:15;;;;;;;1999.90;999.90;;;;;;;14.69;100.00;99710.38;5053432;28;20047;-54
2022/07/04 03:45:59;;;;;;;1999.90;999.90;;;;;;;14.78;100.00;99705.59;5052654;28;20075;-53
2022/07/04 03:48:44;;;;;;;1999.90;999.90;;;;;;;14.83;100.00;99707.13;5053722;28;20122;-53
2022/07/04 03:51:28;;;;;;;1999.90;999.90;;;;;;;14.94;100.00;99715.41;5054453;28;20460;-53
2022/07/04 03:54:13;;;;;;;1999.90;999.90;;;;;;;15.04;100.00;99717.63;5054445;28;20055;-53
2022/07/04 03:56:57;;;;;;;1999.90;999.90;;;;;;;15.15;100.00;99712.75;5053294;28;20067;-53
2022/07/04 03:59:42;;;;;;;1999.90;999.90;;;;;;;15.31;100.00;99718.19;5054105;28;20580;-53
2022/07/04 04:02:26;;;;;;;1999.90;999.90;;;;;;;15.39;100.00;99721.31;5052907;28;20044;-53
2022/07/04 04:05:30;;;;;;;1999.90;999.90;;;;;;;15.38;100.00;99722.25;5054187;28;20045;-54
2022/07/04 04:08:14;;;;;;;1999.90;999.90;;;;;;;15.63;100.00;99729.84;5051795;28;20102;-53
2022/07/04 04:10:58;;;;;;;1999.90;999.90;;;;;;;15.76;100.00;99728.41;5055984;28;20059;-54
2022/07/04 04:13:43;;;;;;;1999.90;999.90;;;;;;;16.02;100.00;99721.00;5056458;28;20075;-53
2022/07/04 04:16:28;;;;;;;1999.90;999.90;;;;;;;16.58;100.00;99715.53;5055237;28;20045;-54
2022/07/04 04:19:13;;;;;;;1999.90;999.90;;;;;;;16.79;100.00;99702.16;5054979;28;20157;-54
2022/07/04 04:21:57;;;;;;;1999.90;999.90;;;;;;;17.36;100.00;99731.75;5054914;28;20926;-54
2022/07/04 04:24:43;;;;;;;1999.90;999.90;;;;;;;17.66;100.00;99737.16;5054347;28;20822;-54
2022/07/04 04:27:27;;;;;;;1999.90;999.90;;;;;;;17.99;100.00;99737.09;5054757;28;20060;-54
2022/07/04 04:30:13;;;;;;;1999.90;999.90;;;;;;;18.55;100.00;99739.19;5052788;28;20514;-54
2022/07/04 04:32:57;;;;;;;1999.90;999.90;;;;;;;18.69;100.00;99736.59;5053494;28;20044;-55
2022/07/04 04:35:42;;;;;;;1999.90;999.90;;;;;;;18.82;100.00;99720.84;5053222;28;20103;-54
2022/07/04 04:38:26;;;;;;;1999.90;999.90;;;;;;;18.97;100.00;99732.28;5053130;28;20110;-55
2022/07/04 04:41:11;;;;;;;1999.90;999.90;;;;;;;19.38;100.00;99722.63;5054282;28;20083;-55
2022/07/04 04:43:55;;;;;;;1999.90;999.90;;;;;;;19.50;100.00;99723.66;5053079;28;20047;-55
2022/07/04 04:46:40;;;;;;;1999.90;999.90;;;;;;;19.72;100.00;99727.63;5051134;28;20080;-55
2022/07/04 04:49:24;;;;;;;1999.90;999.90;;;;;;;19.83;100.00;99723.34;5050880;28;20110;-55
2022/07/04 04:52:09;;;;;;;1999.90;999.90;;;;;;;20.26;100.00;99727.66;5051712;28;20072;-55
2022/07/04 04:54:53;;;;;;;1999.90;999.90;;;;;;;20.53;100.00;99723.16;5052496;28;20055;-55
2022/07/04 04:57:38;;;;;;;1999.90;999.90;;;;;;;20.67;100.00;99724.91;5049170;28;20146;-55
2022/07/04 05:00:22;;;;;;;1999.90;999.90;;;;;;;20.75;100.00;99725.22;5052364;28;20083;-55
2022/07/04 05:03:06;;;;;;;1999.90;999.90;;;;;;;20.81;100.00;99726.63;5051683;28;20782;-55
2022/07/04 05:05:51;;;;;;;1999.90;999.90;;;;;;;20.81;100.00;99717.78;5049795;28;20052;-56
2022/07/04 05:08:35;;;;;;;1999.90;999.90;;;;;;;20.99;100.00;99720.03;5050018;28;20128;-55
2022/07/04 05:11:20;;;;;;;1999.90;999.90;;;;;;;20.89;100.00;99718.09;5049632;28;20151;-56
2022/07/04 05:14:05;;;;;;;1999.90;999.90;;;;;;;20.59;100.00;99697.97;5049779;28;20562;-55
2022/07/04 05:16:49;;;;;;;1999.90;999.90;;;;;;;20.87;100.00;99717.38;5050489;28;20540;-56
2022/07/04 05:19:34;;;;;;;1999.90;999.90;;;;;;;21.32;100.00;99713.28;5050804;28;20048;-55
2022/07/04 05:22:18;;;;;;;1999.90;999.90;;;;;;;21.70;100.00;99712.38;5052008;28;20122;-56
2022/07/04 05:25:03;;;;;;;1999.90;999.90;;;;;;;21.98;100.00;99713.03;5051976;28;20134;-56
2022/07/04 05:27:47;;;;;;;1999.90;999.90;;;;;;;22.03;100.00;99719.69;5052031;28;20438;-56
2022/07/04 05:30:32;;;;;;;1999.90;999.90;;;;;;;21.63;100.00;99727.94;5054505;28;20129;-56
2022/07/04 05:33:17;;;;;;;1999.90;999.90;;;;;;;22.13;100.00;99720.75;5055448;28;20037;-55
2022/07/04 05:36:02;;;;;;;1999.90;999.90;;;;;;;22.14;100.00;99721.59;5055731;28;20056;-56
2022/07/04 05:38:46;;;;;;;1999.90;999.90;;;;;;;22.13;100.00;99723.41;5056913;28;20143;-56
2022/07/04 05:41:31;;;;;;;1999.90;999.90;;;;;;;21.94;100.00;99720.41;5055987;28;20071;-55
2022/07/04 05:44:15;;;;;;;1999.90;999.90;;;;;;;22.87;100.00;99721.34;5053999;28;20143;-55
2022/07/04 05:47:00;;;;;;;1999.90;999.90;;;;;;;23.14;100.00;99727.38;5055533;28;20055;-56
2022/07/04 05:49:44;;;;;;;1999.90;999.90;;;;;;;23.11;100.00;99717.78;5053861;28;20045;-56
2022/07/04 05:52:28;;;;;;;1999.90;999.90;;;;;;;23.35;100.00;99717.66;5053655;28;20840;-57
2022/07/04 05:55:12;;;;;;;1999.90;999.90;;;;;;;23.51;100.00;99720.81;5055809;28;20118;-56
2022/07/04 05:57:57;;;;;;;1999.90;999.90;;;;;;;23.51;100.00;99727.97;5056939;28;20138;-56
2022/07/04 06:00:42;;;;;;;1999.90;999.90;;;;;;;23.71;100.00;99727.25;5056979;28;20059;-56
2022/07/04 06:03:26;;;;;;;1999.90;999.90;;;;;;;24.09;100.00;99727.78;5057622;28;20071;-56
2022/07/04 06:06:11;;;;;;;1999.90;999.90;;;;;;;23.88;100.00;99730.38;5056644;28;20064;-56
2022/07/04 06:08:56;;;;;;;1999.90;999.90;;;;;;;24.49;100.00;99719.97;5057911;28;20510;-56
2022/07/04 06:11:40;;;;;;;1999.90;999.90;;;;;;;24.68;100.00;99720.13;5057665;28;20472;-56
2022/07/04 06:14:25;;;;;;;1999.90;999.90;;;;;;;24.58;100.00;99729.06;5057589;28;20068;-56
2022/07/04 06:17:10;;;;;;;1999.90;999.90;;;;;;;24.82;100.00;99726.13;5057353;28;20599;-56
2022/07/04 06:19:54;;;;;;;1999.90;999.90;;;;;;;25.17;100.00;99734.66;5055756;28;20041;-56
2022/07/04 06:22:40;;;;;;;1999.90;999.90;;;;;;;25.00;100.00;99716.50;5057575;28;20480;-56
2022/07/04 06:25:24;;;;;;;1999.90;999.90;;;;;;;25.60;100.00;99716.63;5056039;28;20090;-56
2022/07/04 06:28:09;;;;;;;1999.90;999.90;;;;;;;25.11;100.00;99715.56;5056067;28;20051;-57
2022/07/04 06:30:53;;;;;;;1999.90;999.90;;;;;;;26.06;100.00;99704.47;5052913;28;20064;-56
2022/07/04 06:35:44;;;;;;;1999.90;999.90;;;;;;;26.11;100.00;99705.75;5057929;28;20048;-56
2022/07/04 06:36:43;;;;;;;1999.90;999.90;;;;;;;26.23;100.00;99700.25;5067406;28;20098;-57
2022/07/04 06:39:28;;;;;;;1999.90;999.90;;;;;;;26.15;100.00;99703.63;5059996;28;20060;-56
2022/07/04 06:42:12;;;;;;;1999.90;999.90;;;;;;;26.38;100.00;99714.94;5052544;28;20068;-56
2022/07/04 06:44:56;;;;;;;1999.90;999.90;;;;;;;26.68;100.00;99716.66;5065630;28;20567;-56
2022/07/04 06:47:41;;;;;;;1999.90;999.90;;;;;;;26.50;100.00;99718.34;5063884;28;20044;-56
2022/07/04 06:50:25;;;;;;;1999.90;999.90;;;;;;;26.58;100.00;99715.78;5066240;28;20091;-56
2022/07/04 06:53:10;;;;;;;1999.90;999.90;;;;;;;26.96;100.00;99712.19;5063300;28;20052;-56
2022/07/04 06:55:54;;;;;;;1999.90;999.90;;;;;;;27.16;100.00;99720.22;5064255;28;20082;-56
2022/07/04 06:58:39;;;;;;;1999.90;999.90;;;;;;;26.80;100.00;99736.13;5064966;28;20439;-57
2022/07/04 07:01:24;;;;;;;1999.90;999.90;;;;;;;27.04;100.00;99731.13;5062342;28;20052;-57
2022/07/04 07:04:08;;;;;;;1999.90;999.90;;;;;;;26.59;100.00;99730.09;5064341;28;20482;-56
2022/07/04 07:06:53;;;;;;;1999.90;999.90;;;;;;;27.10;100.00;99728.84;5064430;28;20146;-55
2022/07/04 07:09:37;;;;;;;0.20;0.20;;;;;;;27.73;100.00;99719.09;5063577;28;20052;-56
2022/07/04 07:12:22;;;;;;;0.30;0.30;;;;;;;27.58;100.00;99720.59;5063832;28;20059;-56
2022/07/04 07:15:07;;;;;;;0.20;0.20;;;;;;;27.71;100.00;99721.09;5065055;28;20041;-56
2022/07/04 07:17:51;;;;;;;0.10;0.10;;;;;;;27.55;100.00;99714.69;5062041;28;20064;-56
2022/07/04 07:20:36;;;;;;;5.53;1.45;;;;;;;27.42;100.00;99718.56;5065926;28;20056;-56
2022/07/04 07:23:21;;;;;;;10.15;9.73;;;;;;;27.11;98.85;99725.19;5060288;28;20103;-57
2022/07/04 07:26:05;;;;;;;1.65;1.65;;;;;;;27.53;100.00;99719.34;5060417;28;20048;-57
2022/07/04 07:28:50;;;;;;;0.60;0.60;;;;;;;27.10;100.00;99723.47;5059883;28;20640;-56
2022/07/04 07:31:35;;;;;;;0.50;0.50;;;;;;;27.34;100.00;99725.69;5060879;28;20048;-56
2022/07/04 07:34:19;;;;;;;1999.90;999.90;;;;;;;26.96;97.63;99724.78;5061239;28;20048;-56
2022/07/04 07:37:04;;;;;;;1999.90;999.90;;;;;;;27.72;92.77;99732.69;5061664;28;20055;-57
2022/07/04 07:39:48;;;;;;;1999.90;999.90;;;;;;;27.17;93.95;99730.84;5060242;28;20119;-56
2022/07/04 07:42:33;;;;;;;1999.90;999.90;;;;;;;27.82;96.39;99732.66;5062391;28;20478;-57
2022/07/04 07:45:17;;;;;;;1999.90;999.90;;;;;;;27.80;93.59;99729.31;5061014;28;20051;-57
2022/07/04 07:48:03;;;;;;;1999.90;999.90;;;;;;;28.15;92.54;99725.81;5061564;28;20115;-57
2022/07/04 07:50:47;;;;;;;1999.90;999.90;;;;;;;27.49;88.99;99730.44;5059748;28;20147;-57
2022/07/04 07:53:32;;;;;;;1999.90;999.90;;;;;;;28.34;90.81;99720.28;5060933;28;20060;-57
2022/07/04 07:56:16;;;;;;;1999.90;999.90;;;;;;;27.55;91.25;99722.75;5062143;28;20496;-57
2022/07/04 07:59:01;;;;;;;1999.90;999.90;;;;;;;28.19;86.32;99721.81;5061306;28;20048;-58
2022/07/04 08:01:45;;;;;;;1999.90;999.90;;;;;;;28.51;87.48;99712.38;5060673;28;20041;-57
2022/07/04 08:04:37;;;;;;;1999.90;999.90;;;;;;;28.80;84.61;99715.63;5051809;28;20079;-57
2022/07/04 08:07:21;;;;;;;1999.90;999.90;;;;;;;29.24;78.54;99720.09;5056129;28;20066;-57
2022/07/04 08:10:07;;;;;;;1999.90;999.90;;;;;;;28.97;77.40;99718.41;5055022;28;20076;-57
2022/07/04 08:12:51;;;;;;;1999.90;999.90;;;;;;;29.52;81.68;99715.38;5054017;28;20075;-58
2022/07/04 08:15:36;;;;;;;1999.90;999.90;;;;;;;29.40;76.67;99708.56;5053598;28;20083;-58
2022/07/04 08:18:22;;;;;;;1999.90;999.90;;;;;;;29.34;73.99;99715.44;5055290;28;20499;-57
2022/07/04 08:21:07;;;;;;;1999.90;999.90;;;;;;;29.78;74.22;99702.66;5055193;28;21109;-58
2022/07/04 08:23:51;;;;;;;1999.90;999.90;;;;;;;30.15;75.75;99698.66;5054848;28;20671;-58
2022/07/04 08:26:36;;;;;;;1999.90;999.90;;;;;;;29.64;77.25;99697.03;5053246;28;20060;-58
2022/07/04 08:29:20;;;;;;;1999.90;999.90;;;;;;;29.99;73.35;99695.94;5056607;28;20045;-58
2022/07/04 08:32:07;;;;;;;1999.90;999.90;;;;;;;29.28;73.04;99700.78;5053021;28;20059;-58
2022/07/04 08:34:51;;;;;;;1999.90;999.90;;;;;;;29.90;70.19;99696.94;5051550;28;20059;-58
2022/07/04 08:37:36;;;;;;;1999.90;999.90;;;;;;;29.94;72.25;99690.22;5053058;28;20072;-57
2022/07/04 08:40:22;;;;;;;1999.90;999.90;;;;;;;29.72;71.62;99689.81;5051380;28;20052;-58
2022/07/04 08:43:12;;;;;;;1999.90;999.90;;;;;;;29.75;70.31;99694.88;5049877;28;20075;-58
2022/07/04 08:45:57;;;;;;;1999.90;999.90;;;;;;;29.62;70.73;99681.03;5050779;28;20060;-57
2022/07/04 08:48:48;;;;;;;1999.90;999.90;;;;;;;29.76;68.50;99671.44;5052417;28;20052;-57
2022/07/04 08:51:59;;;;;;;1999.90;999.90;;;;;;;30.48;64.71;99667.16;5050398;28;20064;-57
2022/07/04 09:00:53;;;;;;;1999.90;999.90;;;;;;;30.85;65.68;99679.28;5055569;28;20413;-58
2022/07/04 09:03:37;;;;;;;1999.90;999.90;;;;;;;30.42;69.21;99678.66;5054670;28;20105;-58
2022/07/04 09:06:23;;;;;;;1999.90;999.90;;;;;;;31.07;62.70;99683.13;5052481;28;20862;-58
2022/07/04 09:09:08;;;;;;;1999.90;999.90;;;;;;;30.21;63.60;99689.94;5055550;28;20063;-58
2022/07/04 09:11:52;;;;;;;1999.90;999.90;;;;;;;30.06;65.76;99686.16;5055214;28;20514;-59
2022/07/04 09:14:39;;;;;;;1999.90;999.90;;;;;;;30.19;62.78;99696.50;5054466;28;20107;-57
2022/07/04 09:17:24;;;;;;;1999.90;999.90;;;;;;;29.57;63.52;99688.72;5059843;28;20067;-58
2022/07/04 09:20:17;;;;;;;1999.90;999.90;;;;;;;29.42;65.36;99687.69;5054044;28;20044;-58
2022/07/04 09:23:17;;;;;;;1999.90;999.90;;;;;;;29.96;66.32;99690.88;5056618;28;20087;-58
2022/07/04 09:26:13;;;;;;;1999.90;999.90;;;;;;;30.02;63.15;99685.66;5055576;28;20493;-57
2022/07/04 09:28:58;;;;;;;1999.90;999.90;;;;;;;30.09;60.22;99685.00;5053345;28;20049;-57
2022/07/04 09:31:42;;;;;;;1999.90;999.90;;;;;;;29.98;62.55;99686.16;5054520;28;20061;-58
2022/07/04 09:34:27;;;;;;;1999.90;999.90;;;;;;;29.56;64.35;99684.34;5055797;28;20048;-57
2022/07/04 09:37:11;;;;;;;1999.90;999.90;;;;;;;29.01;65.68;99698.25;5054759;28;20043;-57
2022/07/04 09:39:56;;;;;;;1999.90;999.90;;;;;;;29.86;70.54;99701.81;5054942;28;20068;-57
2022/07/04 09:42:41;;;;;;;1999.90;999.90;;;;;;;29.80;68.79;99699.78;5054665;28;20136;-58
2022/07/04 09:45:28;;;;;;;1999.90;999.90;;;;;;;29.35;71.15;99695.56;5058901;28;20064;-58
2022/07/04 09:48:12;;;;;;;1999.90;999.90;;;;;;;29.33;69.93;99700.28;5057113;28;20114;-57
2022/07/04 09:50:57;;;;;;;1999.90;999.90;;;;;;;28.90;72.90;99699.34;5058827;28;20650;-58
2022/07/04 09:53:41;;;;;;;1999.90;999.90;;;;;;;28.98;72.37;99709.31;5059217;28;20040;-58
2022/07/04 09:56:42;;;;;;;1999.90;999.90;;;;;;;29.86;73.12;99709.91;5057842;28;20099;-57
2022/07/04 09:59:28;;;;;;;1999.90;999.90;;;;;;;29.85;74.05;99702.84;5057034;28;20057;-57
2022/07/04 10:02:16;;;;;;;1999.90;999.90;;;;;;;29.30;73.70;99706.81;5057305;28;20494;-58
2022/07/04 10:05:07;;;;;;;1999.90;999.90;;;;;;;30.11;72.25;99708.13;5057970;28;20117;-57
2022/07/04 10:07:54;;;;;;;1999.90;999.90;;;;;;;30.06;70.32;99702.38;5081841;28;20114;-58
2022/07/04 10:10:40;;;;;;;1999.90;999.90;;;;;;;29.44;68.84;99707.22;5058127;28;20052;-58
2022/07/04 10:13:24;;;;;;;1999.90;999.90;;;;;;;30.02;73.02;99692.91;5055521;28;20069;-58
2022/07/04 10:16:09;;;;;;;1999.90;999.90;;;;;;;29.68;71.62;99693.88;5058154;28;20040;-58
2022/07/04 10:18:54;;;;;;;1999.90;999.90;;;;;;;29.47;72.43;99693.41;5050125;28;20048;-58
2022/07/04 10:21:39;;;;;;;1999.90;999.90;;;;;;;30.12;73.77;99688.19;5052264;28;20075;-58
2022/07/04 10:24:24;;;;;;;1999.90;999.90;;;;;;;29.94;72.93;99695.63;5054353;28;20040;-58
2022/07/04 10:27:08;;;;;;;1999.90;999.90;;;;;;;30.01;70.92;99688.53;5055604;28;20048;-58
2022/07/04 10:29:54;;;;;;;1999.90;999.90;;;;;;;29.91;71.12;99696.78;5053333;28;20916;-57
2022/07/04 10:32:39;;;;;;;1999.90;999.90;;;;;;;29.85;69.69;99702.84;5053735;28;20491;-58
2022/07/04 10:35:48;;;;;;;1999.90;999.90;;;;;;;29.81;69.51;99699.63;5055907;28;20073;-57
2022/07/04 10:38:34;;;;;;;1999.90;999.90;;;;;;;29.58;66.01;99703.91;5053853;28;20040;-57
2022/07/04 10:41:21;;;;;;;1999.90;999.90;;;;;;;29.20;66.96;99703.41;5051755;28;20055;-58
2022/07/04 10:44:08;;;;;;;1999.90;999.90;;;;;;;29.50;67.71;99704.72;5053450;28;20136;-58
2022/07/04 10:46:56;;;;;;;1999.90;999.90;;;;;;;28.88;66.62;99704.88;5053397;28;20087;-58
2022/07/04 10:49:42;;;;;;;1999.90;999.90;;;;;;;28.65;67.94;99707.25;5053189;28;20048;-57
2022/07/04 10:52:26;;;;;;;1999.90;999.90;;;;;;;28.15;73.17;99715.88;5054999;28;20091;-57
2022/07/04 10:55:11;;;;;;;1999.90;999.90;;;;;;;28.99;70.73;99703.78;5053508;28;20697;-57
2022/07/04 10:57:55;;;;;;;1999.90;999.90;;;;;;;28.16;72.67;99705.97;5055375;28;20045;-57
2022/07/04 11:01:01;;;;;;;1999.90;999.90;;;;;;;28.32;75.45;99703.41;5055278;28;21656;-57
2022/07/04 11:03:47;;;;;;;1999.90;999.90;;;;;;;28.40;74.94;99717.00;5053218;28;20098;-56
2022/07/04 11:06:40;;;;;;;1999.90;999.90;;;;;;;27.91;76.12;99716.47;5049538;28;20135;-57
2022/07/04 11:09:25;;;;;;;1999.90;999.90;;;;;;;28.35;75.37;99718.41;5050163;28;20488;-57
2022/07/04 11:12:11;;;;;;;1999.90;999.90;;;;;;;28.25;73.43;99720.34;5051340;28;20408;-57
2022/07/04 11:14:57;;;;;;;1999.90;999.90;;;;;;;28.16;74.41;99714.88;5052533;28;20044;-56
2022/07/04 11:17:42;;;;;;;1999.90;999.90;;;;;;;28.22;74.27;99717.97;5053260;28;20407;-57
2022/07/04 11:20:28;;;;;;;1999.90;999.90;;;;;;;27.83;75.32;99719.09;5054371;28;20110;-57
2022/07/04 11:23:15;;;;;;;1999.90;999.90;;;;;;;27.47;77.65;99718.13;5053546;28;20051;-56
2022/07/04 11:26:02;;;;;;;1999.90;999.90;;;;;;;27.64;77.29;99713.78;5052239;28;20812;-57
2022/07/04 11:28:47;;;;;;;1999.90;999.90;;;;;;;27.74;76.32;99703.81;5053554;28;20097;-56
2022/07/04 11:31:40;;;;;;;1999.90;999.90;;;;;;;27.98;77.49;99702.41;5050939;28;20099;-57
2022/07/04 11:34:31;;;;;;;1999.90;999.90;;;;;;;28.40;74.92;99708.03;5052053;28;20068;-57
2022/07/04 11:37:16;;;;;;;1999.90;999.90;;;;;;;28.23;76.73;99703.50;5049236;28;20048;-57
2022/07/04 11:46:12;;;;;;;1999.90;999.90;;;;;;;28.47;77.31;99694.81;5051382;28;20037;-56
2022/07/04 11:49:12;;;;;;;1999.90;999.90;;;;;;;28.46;81.91;99699.34;5052618;28;20376;-57
2022/07/04 11:51:57;;;;;;;1999.90;999.90;;;;;;;28.14;78.32;99703.44;5055394;28;20065;-56
2022/07/04 11:54:43;;;;;;;1999.90;999.90;;;;;;;28.23;76.21;99704.34;5056301;28;20063;-57
2022/07/04 11:57:32;;;;;;;1999.90;999.90;;;;;;;29.22;75.57;99695.19;5056308;28;20083;-57
2022/07/04 12:00:19;;;;;;;1999.90;999.90;;;;;;;28.62;78.28;99701.31;5054871;28;20064;-57
2022/07/04 12:03:03;;;;;;;1999.90;999.90;;;;;;;28.31;75.62;99704.44;5056060;28;20574;-57
2022/07/04 12:06:00;;;;;;;1999.90;999.90;;;;;;;28.98;72.18;99698.53;5056805;28;20114;-57
2022/07/04 12:08:45;;;;;;;1999.90;999.90;;;;;;;29.17;71.73;99695.63;5055882;28;20043;-57
2022/07/04 12:11:51;;;;;;;1999.90;999.90;;;;;;;29.30;73.81;99693.34;5054832;28;20100;-58
2022/07/04 12:14:36;;;;;;;1999.90;999.90;;;;;;;29.76;70.35;99683.06;5058056;28;20048;-57
2022/07/04 12:17:21;;;;;;;1999.90;999.90;;;;;;;29.41;75.07;99691.34;5050937;28;20135;-57
2022/07/04 12:20:19;;;;;;;1999.90;999.90;;;;;;;28.84;70.69;99687.34;5054110;28;20064;-57
2022/07/04 12:23:04;;;;;;;1999.90;999.90;;;;;;;29.93;70.65;99685.81;5054274;28;20182;-57
2022/07/04 12:25:51;;;;;;;1999.90;999.90;;;;;;;29.15;73.61;99681.47;5054226;28;20054;-57
2022/07/04 12:28:37;;;;;;;1999.90;999.90;;;;;;;30.34;71.15;99675.94;5059383;28;20052;-57